createdAt,value
2023-05-14T00:00:29.458Z,10.03
2023-05-14T00:02:56.443Z,10.00
2023-05-14T00:05:23.444Z,9.89
2023-05-14T00:07:50.372Z,9.92
2023-05-14T00:10:19.152Z,9.80
2023-05-14T00:12:46.044Z,9.69
2023-05-14T00:15:12.779Z,9.61
2023-05-14T00:17:39.605Z,9.58
2023-05-14T00:20:07.369Z,9.49
2023-05-14T00:22:34.505Z,9.45
2023-05-14T00:25:01.273Z,9.35
2023-05-14T00:27:27.958Z,9.31
2023-05-14T00:29:54.739Z,9.30
2023-05-14T00:32:21.518Z,9.25
2023-05-14T00:34:48.311Z,9.21
2023-05-14T00:37:15.033Z,9.20
2023-05-14T00:39:41.740Z,9.24
2023-05-14T00:42:08.514Z,9.22
2023-05-14T00:44:35.918Z,9.25
2023-05-14T00:47:02.729Z,9.33
2023-05-14T00:49:29.536Z,9.39
2023-05-14T00:51:59.029Z,9.46
2023-05-14T00:54:26.142Z,9.48
2023-05-14T00:56:52.899Z,9.55
2023-05-14T00:59:19.634Z,9.54
2023-05-14T01:01:46.395Z,9.57
2023-05-14T01:04:13.095Z,9.56
2023-05-14T01:07:08.915Z,9.56
2023-05-14T01:10:03.098Z,9.50
2023-05-14T01:12:51.394Z,9.49
2023-05-14T01:15:21.625Z,9.48
2023-05-14T01:18:08.637Z,9.47
2023-05-14T01:20:36.096Z,9.58
2023-05-14T01:23:03.331Z,9.62
2023-05-14T01:25:30.913Z,9.66
2023-05-14T01:28:09.334Z,9.72
2023-05-14T01:30:54.674Z,9.69
2023-05-14T01:33:21.973Z,9.79
2023-05-14T01:35:49.064Z,9.85
2023-05-14T01:38:18.312Z,9.91
2023-05-14T01:40:45.817Z,9.98
2023-05-14T01:43:12.641Z,9.96
2023-05-14T01:45:39.500Z,9.98
2023-05-14T01:48:06.572Z,9.97
2023-05-14T01:50:33.448Z,9.98
2023-05-14T01:53:00.260Z,9.99
2023-05-14T01:55:27.011Z,10.00
2023-05-14T01:57:53.936Z,9.96
2023-05-14T02:00:22.306Z,9.89
2023-05-14T02:02:49.186Z,9.85
2023-05-14T02:05:15.964Z,9.73
2023-05-14T02:07:42.669Z,9.63
2023-05-14T02:10:09.951Z,9.48
2023-05-14T02:12:36.816Z,9.37
2023-05-14T02:15:04.131Z,9.29
2023-05-14T02:17:30.932Z,9.11
2023-05-14T02:19:57.736Z,9.08
2023-05-14T02:22:24.475Z,8.97
2023-05-14T02:24:51.588Z,8.86
2023-05-14T02:27:18.515Z,8.81
2023-05-14T02:29:45.302Z,8.72
2023-05-14T02:32:12.015Z,8.68
2023-05-14T02:34:38.820Z,8.58
2023-05-14T02:37:05.678Z,8.58
2023-05-14T02:39:32.443Z,8.55
2023-05-14T02:41:59.294Z,8.50
2023-05-14T02:44:26.052Z,8.49
2023-05-14T02:46:52.879Z,8.44
2023-05-14T02:49:19.660Z,8.40
2023-05-14T02:51:46.381Z,8.33
2023-05-14T02:54:13.181Z,8.37
2023-05-14T02:56:39.893Z,8.33
2023-05-14T02:59:06.734Z,8.31
2023-05-14T03:01:33.979Z,8.33
2023-05-14T03:04:01.047Z,8.28
2023-05-14T03:06:27.856Z,8.33
2023-05-14T03:08:54.616Z,8.33
2023-05-14T03:11:21.821Z,8.39
2023-05-14T03:13:48.636Z,8.50
2023-05-14T03:16:15.676Z,8.48
2023-05-14T03:18:42.507Z,8.70
2023-05-14T03:21:09.312Z,8.91
2023-05-14T03:23:36.275Z,9.25
2023-05-14T03:26:03.860Z,9.49
2023-05-14T03:28:30.841Z,9.87
2023-05-14T03:30:57.661Z,10.24
2023-05-14T03:33:24.557Z,10.55
2023-05-14T03:35:51.937Z,10.89
2023-05-14T03:38:18.692Z,11.26
2023-05-14T03:40:45.637Z,11.62
2023-05-14T03:43:12.399Z,12.00
2023-05-14T03:45:39.277Z,12.37
2023-05-14T03:48:06.546Z,12.66
2023-05-14T03:50:33.435Z,13.00
2023-05-14T03:53:00.270Z,13.37
2023-05-14T03:55:27.044Z,13.67
2023-05-14T03:57:53.772Z,13.93
2023-05-14T04:00:21.563Z,14.17
2023-05-14T04:02:48.561Z,14.44
2023-05-14T04:05:15.442Z,14.74
2023-05-14T04:07:42.181Z,15.07
2023-05-14T04:10:09.406Z,15.36
2023-05-14T04:12:36.176Z,15.67
2023-05-14T04:15:03.032Z,16.01
2023-05-14T04:17:29.853Z,16.32
2023-05-14T04:19:56.638Z,16.70
2023-05-14T04:22:23.402Z,17.02
2023-05-14T04:24:50.255Z,17.38
2023-05-14T04:27:21.252Z,17.72
2023-05-14T04:29:48.956Z,18.10
2023-05-14T04:32:15.784Z,18.44
2023-05-14T04:34:42.536Z,18.82
2023-05-14T04:37:09.295Z,19.13
2023-05-14T04:39:36.628Z,19.48
2023-05-14T04:42:03.450Z,19.84
2023-05-14T04:44:30.233Z,20.15
2023-05-14T04:46:57.252Z,20.52
2023-05-14T04:49:24.039Z,20.86
2023-05-14T04:51:50.812Z,21.23
2023-05-14T04:54:17.571Z,21.62
2023-05-14T04:56:44.491Z,21.93
2023-05-14T04:59:11.340Z,22.27
2023-05-14T05:01:38.249Z,22.61
2023-05-14T05:04:05.210Z,22.94
2023-05-14T05:06:32.516Z,23.27
2023-05-14T05:09:01.890Z,23.60
2023-05-14T05:11:28.934Z,23.83
2023-05-14T05:13:55.679Z,23.61
2023-05-14T05:16:22.935Z,23.42
2023-05-14T05:18:49.906Z,23.16
2023-05-14T05:21:16.739Z,23.04
2023-05-14T05:23:43.485Z,22.98
2023-05-14T05:26:10.284Z,23.02
2023-05-14T05:28:37.024Z,23.04
2023-05-14T05:31:03.843Z,23.06
2023-05-14T05:33:30.801Z,23.35
2023-05-14T05:35:57.527Z,23.67
2023-05-14T05:38:24.310Z,23.89
2023-05-14T05:40:51.227Z,24.13
2023-05-14T05:43:18.116Z,24.14
2023-05-14T05:45:46.096Z,24.49
2023-05-14T05:48:12.852Z,24.76
2023-05-14T05:50:39.597Z,24.85
2023-05-14T05:53:06.383Z,25.24
2023-05-14T05:55:33.160Z,25.46
2023-05-14T05:57:59.966Z,25.61
2023-05-14T06:00:26.962Z,25.64
2023-05-14T06:02:53.996Z,26.01
2023-05-14T06:05:20.916Z,26.01
2023-05-14T06:07:47.761Z,26.42
2023-05-14T06:10:14.525Z,26.78
2023-05-14T06:12:41.324Z,26.86
2023-05-14T06:15:08.520Z,27.13
2023-05-14T06:17:35.356Z,27.36
2023-05-14T06:20:02.107Z,27.70
2023-05-14T06:22:28.861Z,28.11
2023-05-14T06:24:55.570Z,28.42
2023-05-14T06:27:22.338Z,28.73
2023-05-14T06:29:49.058Z,28.96
2023-05-14T06:32:17.614Z,29.25
2023-05-14T06:34:44.459Z,29.59
2023-05-14T06:37:11.212Z,29.79
2023-05-14T06:39:38.142Z,30.09
2023-05-14T06:42:05.286Z,30.18
2023-05-14T06:44:32.045Z,30.43
2023-05-14T06:46:58.757Z,30.65
2023-05-14T06:49:25.520Z,30.95
2023-05-14T06:51:52.375Z,31.19
2023-05-14T06:54:20.597Z,31.46
2023-05-14T06:56:47.797Z,31.67
2023-05-14T06:59:14.523Z,31.65
2023-05-14T07:01:41.303Z,31.85
2023-05-14T07:04:08.156Z,32.01
2023-05-14T07:06:34.990Z,31.96
2023-05-14T07:09:01.981Z,32.44
2023-05-14T07:11:28.764Z,32.63
2023-05-14T07:13:55.636Z,32.80
2023-05-14T07:16:22.403Z,33.07
2023-05-14T07:18:49.332Z,33.25
2023-05-14T07:21:16.464Z,33.44
2023-05-14T07:23:43.194Z,33.39
2023-05-14T07:26:09.977Z,33.68
2023-05-14T07:28:36.738Z,34.02
2023-05-14T07:31:09.056Z,33.86
2023-05-14T07:33:36.598Z,34.11
2023-05-14T07:36:03.500Z,34.35
2023-05-14T07:38:30.310Z,34.67
2023-05-14T07:40:57.139Z,35.16
2023-05-14T07:43:23.937Z,35.11
2023-05-14T07:45:50.699Z,35.04
2023-05-14T07:48:17.511Z,35.25
2023-05-14T07:50:44.379Z,35.60
2023-05-14T07:53:11.137Z,35.65
2023-05-14T07:55:38.002Z,35.80
2023-05-14T07:58:04.800Z,35.97
2023-05-14T08:00:31.596Z,36.22
2023-05-14T08:02:58.534Z,36.03
2023-05-14T08:05:26.631Z,36.20
2023-05-14T08:07:53.391Z,36.14
2023-05-14T08:10:20.275Z,36.45
2023-05-14T08:12:47.169Z,36.37
2023-05-14T08:15:14.098Z,36.68
2023-05-14T08:17:41.138Z,36.43
2023-05-14T08:20:09.185Z,36.83
2023-05-14T08:22:36.056Z,37.09
2023-05-14T08:25:03.922Z,37.28
2023-05-14T08:27:30.792Z,37.14
2023-05-14T08:29:57.753Z,37.19
2023-05-14T08:32:24.531Z,37.32
2023-05-14T08:34:51.989Z,37.63
2023-05-14T08:37:18.917Z,37.81
2023-05-14T08:39:45.677Z,37.85
2023-05-14T08:42:13.086Z,37.75
2023-05-14T08:44:45.804Z,37.44
2023-05-14T08:47:12.874Z,36.82
2023-05-14T08:49:43.082Z,36.69
2023-05-14T08:52:09.992Z,36.08
2023-05-14T08:54:36.796Z,36.23
2023-05-14T08:57:04.607Z,36.23
2023-05-14T08:59:31.474Z,35.65
2023-05-14T09:02:01.564Z,34.85
2023-05-14T09:04:29.697Z,34.94
2023-05-14T09:06:56.562Z,35.29
2023-05-14T09:09:23.503Z,34.83
2023-05-14T09:11:55.713Z,34.54
2023-05-14T09:14:23.358Z,34.37
2023-05-14T09:16:50.776Z,34.14
2023-05-14T09:19:19.492Z,34.31
2023-05-14T09:21:46.708Z,34.59
2023-05-14T09:24:21.331Z,34.65
2023-05-14T09:26:57.070Z,34.22
2023-05-14T09:29:27.462Z,34.46
2023-05-14T09:31:54.909Z,34.49
2023-05-14T09:34:25.907Z,34.97
2023-05-14T09:37:03.064Z,35.28
2023-05-14T09:39:29.961Z,35.24
2023-05-14T09:41:57.170Z,34.79
2023-05-14T09:44:24.013Z,34.73
2023-05-14T09:46:51.268Z,35.19
2023-05-14T09:49:18.213Z,35.01
2023-05-14T09:51:45.021Z,34.07
2023-05-14T09:54:12.078Z,33.77
2023-05-14T09:56:39.716Z,33.01
2023-05-14T09:59:06.540Z,33.03
2023-05-14T10:01:33.628Z,33.33
2023-05-14T10:04:00.625Z,33.89
2023-05-14T10:06:28.689Z,34.39
2023-05-14T10:08:56.844Z,34.49
2023-05-14T10:11:28.057Z,34.95
2023-05-14T10:14:39.985Z,35.17
2023-05-14T10:17:06.929Z,35.30
2023-05-14T10:19:35.244Z,35.36
2023-05-14T10:22:07.219Z,35.29
2023-05-14T10:24:34.094Z,35.45
2023-05-14T10:27:01.456Z,35.23
2023-05-14T10:29:34.989Z,34.79
2023-05-14T10:32:08.645Z,34.73
2023-05-14T10:34:40.766Z,34.71
2023-05-14T10:37:10.182Z,32.03
2023-05-14T10:39:59.189Z,32.79
2023-05-14T10:42:32.813Z,32.91
2023-05-14T10:45:07.387Z,32.95
2023-05-14T10:47:42.610Z,33.80
2023-05-14T10:50:11.960Z,32.67
2023-05-14T10:52:38.811Z,31.34
2023-05-14T10:55:10.359Z,31.49
2023-05-14T10:57:39.641Z,30.31
2023-05-14T11:00:09.100Z,28.64
2023-05-14T11:02:37.301Z,28.59
2023-05-14T11:05:05.441Z,28.04
2023-05-14T11:07:36.573Z,27.46
2023-05-14T11:10:07.531Z,26.39
2023-05-14T11:12:38.903Z,26.04
2023-05-14T11:15:09.822Z,25.62
2023-05-14T11:17:37.193Z,25.40
2023-05-14T11:20:05.749Z,25.72
2023-05-14T11:22:32.652Z,26.92
2023-05-14T11:24:59.405Z,29.29
2023-05-14T11:27:26.484Z,31.49
2023-05-14T11:29:53.313Z,33.48
2023-05-14T11:32:20.385Z,34.75
2023-05-14T11:34:47.283Z,32.95
2023-05-14T11:37:15.151Z,33.51
2023-05-14T11:39:49.701Z,34.43
2023-05-14T11:42:18.781Z,34.81
2023-05-14T11:44:52.242Z,34.86
2023-05-14T11:47:20.335Z,35.57
2023-05-14T11:49:47.314Z,32.40
2023-05-14T11:52:14.868Z,30.01
2023-05-14T11:54:42.720Z,30.95
2023-05-14T11:57:19.538Z,29.74
2023-05-14T11:59:46.876Z,28.49
2023-05-14T12:02:18.424Z,28.16
2023-05-14T12:04:46.011Z,28.46
2023-05-14T12:07:15.046Z,28.50
2023-05-14T12:09:49.967Z,27.95
2023-05-14T12:12:22.896Z,26.61
2023-05-14T12:14:50.167Z,25.57
2023-05-14T12:17:21.005Z,24.59
2023-05-14T12:19:49.312Z,25.02
2023-05-14T12:22:18.971Z,27.58
2023-05-14T12:24:58.702Z,29.84
2023-05-14T12:27:29.810Z,31.48
2023-05-14T12:30:19.966Z,32.61
2023-05-14T12:32:51.735Z,33.62
2023-05-14T12:35:19.033Z,34.17
2023-05-14T12:37:45.839Z,33.44
2023-05-14T12:40:12.717Z,31.18
2023-05-14T12:42:39.513Z,29.09
2023-05-14T12:45:08.542Z,27.54
2023-05-14T12:47:36.522Z,26.27
2023-05-14T12:50:03.619Z,25.81
2023-05-14T12:52:37.804Z,25.63
2023-05-14T12:55:07.626Z,26.60
2023-05-14T12:57:35.748Z,27.69
2023-05-14T13:00:06.457Z,28.54
2023-05-14T13:02:33.352Z,29.82
2023-05-14T13:05:10.369Z,31.09
2023-05-14T13:07:37.451Z,32.32
2023-05-14T13:10:05.940Z,33.13
2023-05-14T13:12:33.061Z,33.21
2023-05-14T13:14:59.944Z,31.72
2023-05-14T13:17:26.902Z,30.17
2023-05-14T13:19:53.920Z,28.07
2023-05-14T13:22:20.690Z,27.24
2023-05-14T13:24:47.463Z,26.55
2023-05-14T13:27:14.238Z,27.52
2023-05-14T13:29:41.553Z,29.04
2023-05-14T13:32:08.507Z,30.51
2023-05-14T13:34:35.353Z,30.89
2023-05-14T13:37:02.124Z,31.10
2023-05-14T13:39:28.821Z,32.40
2023-05-14T13:41:56.916Z,33.35
2023-05-14T13:44:24.333Z,34.18
2023-05-14T13:46:51.269Z,34.31
2023-05-14T13:49:18.073Z,34.20
2023-05-14T13:51:44.905Z,32.24
2023-05-14T13:54:11.748Z,30.28
2023-05-14T13:56:38.558Z,28.15
2023-05-14T13:59:06.055Z,26.41
2023-05-14T14:01:32.936Z,25.46
2023-05-14T14:03:59.738Z,24.77
2023-05-14T14:06:27.577Z,24.46
2023-05-14T14:08:54.437Z,24.15
2023-05-14T14:11:21.235Z,23.95
2023-05-14T14:13:48.101Z,23.71
2023-05-14T14:16:15.168Z,23.51
2023-05-14T14:18:43.503Z,23.25
2023-05-14T14:21:10.600Z,23.30
2023-05-14T14:23:37.473Z,23.10
2023-05-14T14:26:04.318Z,23.14
2023-05-14T14:28:31.401Z,23.23
2023-05-14T14:30:58.314Z,23.11
2023-05-14T14:33:25.313Z,23.28
2023-05-14T14:35:52.079Z,23.07
2023-05-14T14:38:19.111Z,23.12
2023-05-14T14:40:46.462Z,22.91
2023-05-14T14:43:13.296Z,23.05
2023-05-14T14:45:40.241Z,22.94
2023-05-14T14:48:28.829Z,22.92
2023-05-14T14:50:55.953Z,22.81
2023-05-14T14:53:22.989Z,22.85
2023-05-14T14:55:50.194Z,22.73
2023-05-14T14:58:18.266Z,22.83
2023-05-14T15:00:45.770Z,22.94
2023-05-14T15:03:12.883Z,22.89
2023-05-14T15:05:40.123Z,22.99
2023-05-14T15:08:07.011Z,23.01
2023-05-14T15:10:37.977Z,22.93
2023-05-14T15:13:06.031Z,22.94
2023-05-14T15:15:33.613Z,22.90
2023-05-14T15:18:00.706Z,22.98
2023-05-14T15:20:27.606Z,23.31
2023-05-14T15:22:54.639Z,23.51
2023-05-14T15:25:21.702Z,23.43
2023-05-14T15:27:49.004Z,23.31
2023-05-14T15:30:16.182Z,23.23
2023-05-14T15:32:43.313Z,23.25
2023-05-14T15:35:10.111Z,23.06
2023-05-14T15:37:41.133Z,22.91
2023-05-14T15:40:09.142Z,22.84
2023-05-14T15:42:40.173Z,22.73
2023-05-14T15:45:07.371Z,22.54
2023-05-14T15:47:34.183Z,22.35
2023-05-14T15:50:01.244Z,22.17
2023-05-14T15:52:28.052Z,22.11
2023-05-14T15:54:56.220Z,21.84
2023-05-14T15:57:23.476Z,21.77
2023-05-14T15:59:50.394Z,21.77
2023-05-14T16:02:17.185Z,21.66
2023-05-14T16:04:46.655Z,21.64
2023-05-14T16:07:13.411Z,21.61
2023-05-14T16:09:40.309Z,21.36
2023-05-14T16:12:07.802Z,21.31
2023-05-14T16:14:35.137Z,21.09
2023-05-14T16:17:02.259Z,20.88
2023-05-14T16:19:29.207Z,20.64
2023-05-14T16:21:56.110Z,20.76
2023-05-14T16:24:22.964Z,20.75
2023-05-14T16:26:49.836Z,20.80
2023-05-14T16:29:16.718Z,20.94
2023-05-14T16:31:43.651Z,20.95
2023-05-14T16:34:10.434Z,21.12
2023-05-14T16:36:37.507Z,21.01
2023-05-14T16:39:08.062Z,20.91
2023-05-14T16:41:35.901Z,20.73
2023-05-14T16:44:02.661Z,20.58
2023-05-14T16:46:30.501Z,20.50
2023-05-14T16:48:57.360Z,20.31
2023-05-14T16:51:24.118Z,20.05
2023-05-14T16:53:51.966Z,19.90
2023-05-14T16:56:18.979Z,19.71
2023-05-14T16:58:45.738Z,19.64
2023-05-14T17:01:12.540Z,19.60
2023-05-14T17:03:39.323Z,19.59
2023-05-14T17:06:06.627Z,19.48
2023-05-14T17:08:35.649Z,19.41
2023-05-14T17:11:05.699Z,19.38
2023-05-14T17:13:33.195Z,19.21
2023-05-14T17:16:00.685Z,19.13
2023-05-14T17:18:27.536Z,19.04
2023-05-14T17:20:54.309Z,18.82
2023-05-14T17:23:21.119Z,18.83
2023-05-14T17:25:47.928Z,18.91
2023-05-14T17:28:14.876Z,18.78
2023-05-14T17:30:41.711Z,18.69
2023-05-14T17:33:08.700Z,18.70
2023-05-14T17:35:36.543Z,18.62
2023-05-14T17:38:03.639Z,18.63
2023-05-14T17:40:30.488Z,18.51
2023-05-14T17:42:57.286Z,18.47
2023-05-14T17:45:24.272Z,18.45
2023-05-14T17:47:51.562Z,18.40
2023-05-14T17:50:18.973Z,18.29
2023-05-14T17:52:46.230Z,18.17
2023-05-14T17:55:13.242Z,17.95
2023-05-14T17:57:40.254Z,17.85
2023-05-14T18:00:08.284Z,17.65
2023-05-14T18:02:35.213Z,17.57
2023-05-14T18:05:02.913Z,17.32
2023-05-14T18:07:34.425Z,17.21
2023-05-14T18:10:01.316Z,17.09
2023-05-14T18:12:28.125Z,17.05
2023-05-14T18:14:54.940Z,17.00
2023-05-14T18:17:21.757Z,16.80
2023-05-14T18:19:48.557Z,16.66
2023-05-14T18:22:15.819Z,16.50
2023-05-14T18:24:44.305Z,16.40
2023-05-14T18:27:11.183Z,16.26
2023-05-14T18:29:37.978Z,16.10
2023-05-14T18:32:05.293Z,16.02
2023-05-14T18:34:32.095Z,15.78
2023-05-14T18:36:58.829Z,15.59
2023-05-14T18:39:25.789Z,15.38
2023-05-14T18:41:52.833Z,14.98
2023-05-14T18:44:19.626Z,15.01
2023-05-14T18:46:46.476Z,14.75
2023-05-14T18:49:13.311Z,14.63
2023-05-14T18:51:40.029Z,14.59
2023-05-14T18:54:06.853Z,14.71
2023-05-14T18:56:34.006Z,14.56
2023-05-14T18:59:00.824Z,14.63
2023-05-14T19:01:28.281Z,14.65
2023-05-14T19:03:55.359Z,14.61
2023-05-14T19:06:22.263Z,14.43
2023-05-14T19:08:49.123Z,14.24
2023-05-14T19:11:16.381Z,14.17
2023-05-14T19:13:46.700Z,14.00
2023-05-14T19:16:13.758Z,13.89
2023-05-14T19:18:40.672Z,13.84
2023-05-14T19:21:07.449Z,13.83
2023-05-14T19:23:34.282Z,13.71
2023-05-14T19:26:01.307Z,13.57
2023-05-14T19:28:28.121Z,13.64
2023-05-14T19:30:54.930Z,13.55
2023-05-14T19:33:21.702Z,13.32
2023-05-14T19:35:48.506Z,13.33
2023-05-14T19:38:15.453Z,13.40
2023-05-14T19:40:43.666Z,13.27
2023-05-14T19:43:11.965Z,13.39
2023-05-14T19:45:39.452Z,13.26
2023-05-14T19:48:06.898Z,13.26
2023-05-14T19:50:33.961Z,13.29
2023-05-14T19:53:01.222Z,13.45
2023-05-14T19:55:28.044Z,13.39
2023-05-14T19:57:54.857Z,13.36
2023-05-14T20:00:22.922Z,13.45
2023-05-14T20:02:49.827Z,13.40
2023-05-14T20:05:16.901Z,13.31
2023-05-14T20:07:43.914Z,13.33
2023-05-14T20:10:12.588Z,13.33
2023-05-14T20:12:39.601Z,13.30
2023-05-14T20:15:06.911Z,13.25
2023-05-14T20:17:33.829Z,13.14
2023-05-14T20:20:01.541Z,13.09
2023-05-14T20:22:28.446Z,12.97
2023-05-14T20:24:55.807Z,12.92
2023-05-14T20:27:22.619Z,12.82
2023-05-14T20:29:51.510Z,12.86
2023-05-14T20:32:18.361Z,12.79
2023-05-14T20:34:45.280Z,12.71
2023-05-14T20:37:12.267Z,12.78
2023-05-14T20:39:39.180Z,12.72
2023-05-14T20:42:06.287Z,12.68
2023-05-14T20:44:33.114Z,12.60
2023-05-14T20:46:59.969Z,12.53
2023-05-14T20:49:26.912Z,12.43
2023-05-14T20:51:53.860Z,12.44
2023-05-14T20:54:21.004Z,12.47
2023-05-14T20:56:47.921Z,12.50
2023-05-14T20:59:14.731Z,12.43
2023-05-14T21:01:42.784Z,12.36
2023-05-14T21:04:09.750Z,12.38
2023-05-14T21:06:36.816Z,12.24
2023-05-14T21:09:03.660Z,12.23
2023-05-14T21:11:30.521Z,12.23
2023-05-14T21:13:57.846Z,12.04
2023-05-14T21:16:24.764Z,12.07
2023-05-14T21:18:51.667Z,12.01
2023-05-14T21:21:21.413Z,11.84
2023-05-14T21:23:48.294Z,11.83
2023-05-14T21:26:15.108Z,11.71
2023-05-14T21:28:42.001Z,11.76
2023-05-14T21:31:08.833Z,11.62
2023-05-14T21:33:35.682Z,11.59
2023-05-14T21:36:02.502Z,11.69
2023-05-14T21:38:29.476Z,11.59
2023-05-14T21:40:56.414Z,11.51
2023-05-14T21:43:23.264Z,11.41
2023-05-14T21:45:50.040Z,11.51
2023-05-14T21:48:17.012Z,11.31
2023-05-14T21:50:43.987Z,11.49
2023-05-14T21:53:10.786Z,11.45
2023-05-14T21:55:37.619Z,11.39
2023-05-14T21:58:04.404Z,11.40
2023-05-14T22:00:31.903Z,11.51
2023-05-14T22:02:59.040Z,11.46
2023-05-14T22:05:26.037Z,11.41
2023-05-14T22:07:53.388Z,11.28
2023-05-14T22:10:20.242Z,11.25
2023-05-14T22:12:47.070Z,11.18
2023-05-14T22:15:13.857Z,11.23
2023-05-14T22:17:41.138Z,11.18
2023-05-14T22:20:10.157Z,11.01
2023-05-14T22:22:37.030Z,10.93
2023-05-14T22:25:04.523Z,11.09
2023-05-14T22:27:31.673Z,11.12
2023-05-14T22:29:58.823Z,11.07
2023-05-14T22:32:25.993Z,10.99
2023-05-14T22:34:52.869Z,11.05
2023-05-14T22:37:19.693Z,10.82
2023-05-14T22:39:46.544Z,10.90
2023-05-14T22:42:13.593Z,10.94
2023-05-14T22:44:40.486Z,10.84
2023-05-14T22:47:07.379Z,10.93
2023-05-14T22:49:34.230Z,10.83
2023-05-14T22:52:01.397Z,10.84
2023-05-14T22:54:28.271Z,10.90
2023-05-14T22:56:55.149Z,10.89
2023-05-14T22:59:23.688Z,10.95
2023-05-14T23:01:51.209Z,10.92
2023-05-14T23:04:18.130Z,10.95
2023-05-14T23:06:45.004Z,10.98
2023-05-14T23:09:11.801Z,10.95
2023-05-14T23:11:38.623Z,10.98
2023-05-14T23:14:05.579Z,11.13
2023-05-14T23:16:32.363Z,11.19
2023-05-14T23:18:59.215Z,11.21
2023-05-14T23:21:26.205Z,11.18
2023-05-14T23:23:52.946Z,11.13
2023-05-14T23:26:19.757Z,11.17
2023-05-14T23:28:47.530Z,10.99
2023-05-14T23:31:14.401Z,11.20
2023-05-14T23:33:41.239Z,11.18
2023-05-14T23:36:08.477Z,11.11
2023-05-14T23:38:35.580Z,11.08
2023-05-14T23:41:02.403Z,11.10
2023-05-14T23:43:29.300Z,11.10
2023-05-14T23:45:56.150Z,10.88
2023-05-14T23:48:23.113Z,11.12
2023-05-14T23:50:50.076Z,11.02
2023-05-14T23:53:17.197Z,11.12
2023-05-14T23:55:43.997Z,11.09
2023-05-14T23:58:10.742Z,11.11
